Sunday, October 22, 2017, 5:08 PM EDT
Back to Local

KJYO, Leesburg / Godfrey

Location: Leesburg, VA, United States Lat: 39.083
Local Time: 5:08 PM EDT (21:08 GMT) Lon: -77.567
Time Zone: US/Eastern Elev: 390 ft

Show me the last for .
Show Decoded

2017-10-22 16:35 METAR KJYO 222035Z AUTO 16008KT 10SM CLR 25/15 A3031 RMK AO2 =
2017-10-22 16:15 METAR KJYO 222015Z AUTO 16007G14KT 10SM CLR 25/15 A3031 RMK AO2 =
2017-10-22 15:55 METAR KJYO 221955Z AUTO 15009KT 110V180 10SM SCT044 25/15 A3031 RMK AO2 =
2017-10-22 15:35 METAR KJYO 221935Z AUTO 17009G17KT 120V180 10SM SCT044 25/15 A3031 RMK AO2 =
2017-10-22 15:15 METAR KJYO 221915Z AUTO 13006KT 10SM CLR 25/15 A3032 RMK AO2 =
2017-10-22 14:55 METAR KJYO 221855Z AUTO 17007KT 10SM CLR 25/15 A3032 RMK AO2 =
2017-10-22 14:35 METAR KJYO 221835Z AUTO 17007KT 10SM CLR 25/15 A3033 RMK AO2 =
2017-10-22 14:15 METAR KJYO 221815Z AUTO 18007KT 10SM CLR 25/15 A3033 RMK AO2 =
2017-10-22 13:55 METAR KJYO 221755Z AUTO 18008KT 10SM CLR 25/15 A3034 RMK AO2 =
2017-10-22 13:35 METAR KJYO 221735Z AUTO 18006KT 10SM CLR 24/15 A3035 RMK AO2 =
2017-10-22 13:15 METAR KJYO 221715Z AUTO 21008KT 10SM CLR 24/15 A3036 RMK AO2 =
2017-10-22 12:55 METAR KJYO 221655Z AUTO 17005KT 10SM CLR 23/15 A3036 RMK AO2 =
2017-10-22 12:35 METAR KJYO 221635Z AUTO 19003KT 10SM CLR 22/14 A3037 RMK AO2 =
2017-10-22 12:15 METAR KJYO 221615Z AUTO 00000KT 10SM CLR 21/14 A3037 RMK AO2 =
2017-10-22 11:55 METAR KJYO 221555Z AUTO 00000KT 10SM CLR 20/13 A3038 RMK AO2 =
2017-10-22 11:15 METAR KJYO 221515Z AUTO 00000KT 10SM CLR 18/12 A3039 RMK AO2 =
2017-10-22 10:55 METAR KJYO 221455Z AUTO 00000KT 10SM CLR 17/12 A3040 RMK AO2 =
2017-10-22 10:35 METAR KJYO 221435Z AUTO 00000KT 10SM CLR 16/12 A3041 RMK AO2 =
2017-10-22 10:15 METAR KJYO 221415Z AUTO 00000KT 10SM CLR 15/12 A3041 RMK AO2 =
2017-10-22 09:55 METAR KJYO 221355Z AUTO 00000KT 10SM CLR 15/11 A3041 RMK AO2 =
2017-10-22 09:35 METAR KJYO 221335Z AUTO 00000KT 10SM CLR 13/11 A3041 RMK AO2 =
2017-10-22 09:15 METAR KJYO 221315Z AUTO 00000KT 10SM CLR 12/11 A3041 RMK AO2 =
2017-10-22 08:55 METAR KJYO 221255Z AUTO 00000KT 10SM CLR 12/10 A3041 RMK AO2 =
2017-10-22 08:35 METAR KJYO 221235Z AUTO 00000KT 10SM CLR 11/10 A3040 RMK AO2 =
2017-10-22 08:15 METAR KJYO 221215Z AUTO 02003KT 10SM CLR 10/10 A3039 RMK AO2 =
2017-10-22 07:55 METAR KJYO 221155Z AUTO 00000KT 10SM CLR 08/08 A3039 RMK AO2 =
2017-10-22 07:35 METAR KJYO 221135Z AUTO 01003KT 10SM CLR 08/08 A3039 RMK AO2 =
2017-10-22 07:15 METAR KJYO 221115Z AUTO 00000KT 10SM CLR 08/08 A3038 RMK AO2 =
2017-10-22 06:55 METAR KJYO 221055Z AUTO 36003KT 10SM CLR 08/08 A3039 RMK AO2 =
2017-10-22 06:35 METAR KJYO 221035Z AUTO 00000KT 10SM CLR 09/09 A3039 RMK AO2 =
2017-10-22 06:15 METAR KJYO 221015Z AUTO 00000KT 10SM CLR 08/08 A3038 RMK AO2 =
2017-10-22 05:55 METAR KJYO 220955Z AUTO 00000KT 10SM CLR 10/10 A3038 RMK AO2 =
2017-10-22 05:35 METAR KJYO 220935Z AUTO 00000KT 10SM CLR 08/08 A3037 RMK AO2 =
2017-10-22 05:15 METAR KJYO 220915Z AUTO 00000KT 10SM CLR 08/08 A3036 RMK AO2 =
2017-10-22 04:55 METAR KJYO 220855Z AUTO 00000KT 10SM CLR 08/08 A3036 RMK AO2 =
2017-10-22 04:35 METAR KJYO 220835Z AUTO 00000KT 10SM CLR 08/08 A3035 RMK AO2 =
2017-10-22 04:15 METAR KJYO 220815Z AUTO 00000KT 10SM CLR 09/09 A3035 RMK AO2 =
2017-10-22 03:55 METAR KJYO 220755Z AUTO 00000KT 10SM CLR 10/09 A3034 RMK AO2 =
2017-10-22 03:35 METAR KJYO 220735Z AUTO 00000KT 10SM CLR 10/10 A3035 RMK AO2 =
2017-10-22 03:15 METAR KJYO 220715Z AUTO 00000KT 10SM CLR 10/10 A3035 RMK AO2 =
2017-10-22 02:55 METAR KJYO 220655Z AUTO 00000KT 10SM CLR 09/09 A3035 RMK AO2 =
2017-10-22 02:35 METAR KJYO 220635Z AUTO 00000KT 10SM CLR 11/10 A3035 RMK AO2 =
2017-10-22 02:15 METAR KJYO 220615Z AUTO 00000KT 10SM CLR 10/10 A3036 RMK AO2 =
2017-10-22 01:55 METAR KJYO 220555Z AUTO 00000KT 10SM CLR 11/10 A3036 RMK AO2 =
2017-10-22 01:35 METAR KJYO 220535Z AUTO 00000KT 10SM CLR 11/09 A3036 RMK AO2 =
2017-10-22 01:15 METAR KJYO 220515Z AUTO 00000KT 10SM CLR 11/10 A3036 RMK AO2 =
2017-10-22 00:55 METAR KJYO 220455Z AUTO 00000KT 10SM CLR 10/10 A3036 RMK AO2 =
2017-10-22 00:35 METAR KJYO 220435Z AUTO 00000KT 10SM CLR 10/10 A3036 RMK AO2 =
2017-10-22 00:15 METAR KJYO 220415Z AUTO 00000KT 10SM CLR 11/10 A3036 RMK AO2 =
2017-10-21 23:55 METAR KJYO 220355Z AUTO 00000KT 10SM CLR 12/10 A3036 RMK AO2 =
2017-10-21 23:35 METAR KJYO 220335Z AUTO 00000KT 10SM CLR 12/10 A3037 RMK AO2 =
2017-10-21 23:15 METAR KJYO 220315Z AUTO 00000KT 10SM CLR 12/10 A3037 RMK AO2 =
2017-10-21 22:55 METAR KJYO 220255Z AUTO 00000KT 10SM CLR 13/11 A3037 RMK AO2 =
2017-10-21 22:35 METAR KJYO 220235Z AUTO 00000KT 10SM CLR 13/11 A3037 RMK AO2 =
2017-10-21 22:15 METAR KJYO 220215Z AUTO 32003KT 10SM CLR 13/11 A3037 RMK AO2 =
2017-10-21 21:55 METAR KJYO 220155Z AUTO 00000KT 10SM CLR 13/11 A3037 RMK AO2 =
2017-10-21 21:35 METAR KJYO 220135Z AUTO 00000KT 10SM CLR 13/11 A3037 RMK AO2 =
2017-10-21 21:15 METAR KJYO 220115Z AUTO 00000KT 10SM CLR 16/10 A3037 RMK AO2 =
2017-10-21 20:55 METAR KJYO 220055Z AUTO 00000KT 10SM CLR 15/10 A3036 RMK AO2 =
2017-10-21 20:35 METAR KJYO 220035Z AUTO 17003KT 10SM CLR 17/10 A3036 RMK AO2 =
2017-10-21 20:15 METAR KJYO 220015Z AUTO 00000KT 10SM CLR 17/10 A3036 RMK AO2 =
2017-10-21 19:55 METAR KJYO 212355Z AUTO 00000KT 10SM CLR 17/10 A3036 RMK AO2 =
2017-10-21 19:35 METAR KJYO 212335Z AUTO 18003KT 10SM CLR 20/07 A3035 RMK AO2 =
2017-10-21 19:15 METAR KJYO 212315Z AUTO 17003KT 10SM CLR 21/07 A3035 RMK AO2 =
2017-10-21 18:55 METAR KJYO 212255Z AUTO 16005KT 10SM CLR 22/06 A3035 RMK AO2 =
2017-10-21 18:35 METAR KJYO 212235Z AUTO 16006KT 10SM CLR 22/06 A3034 RMK AO2 =
2017-10-21 18:15 METAR KJYO 212215Z AUTO 16005KT 10SM CLR 23/07 A3033 RMK AO2 =
2017-10-21 17:55 METAR KJYO 212155Z AUTO 15005KT 10SM CLR 23/07 A3033 RMK AO2 =
2017-10-21 17:35 METAR KJYO 212135Z AUTO 16004KT 10SM CLR 24/08 A3033 RMK AO2 =
2017-10-21 17:15 METAR KJYO 212115Z AUTO 16003KT 10SM CLR 24/08 A3033 RMK AO2 =

Support USWX by starting your Amazon purchase here.